createdAt,value
2022-12-09T00:00:44.699Z,29.13
2022-12-09T00:01:46.899Z,33.95
2022-12-09T00:02:50.425Z,40.50
2022-12-09T00:03:55.160Z,26.05
2022-12-09T00:04:58.544Z,56.10
2022-12-09T00:06:05.520Z,36.10
2022-12-09T00:07:08.784Z,36.58
2022-12-09T00:08:11.006Z,31.95
2022-12-09T00:09:16.269Z,30.25
2022-12-09T00:10:18.736Z,38.33
2022-12-09T00:11:22.847Z,46.88
2022-12-09T00:12:26.592Z,39.92
2022-12-09T00:13:30.141Z,26.02
2022-12-09T00:14:32.323Z,31.90
2022-12-09T00:15:35.592Z,40.75
2022-12-09T00:16:38.160Z,35.63
2022-12-09T00:17:41.403Z,31.33
2022-12-09T00:18:43.956Z,31.63
2022-12-09T00:19:47.894Z,27.15
2022-12-09T00:20:50.071Z,29.55
2022-12-09T00:21:53.407Z,28.80
2022-12-09T00:22:58.389Z,34.50
2022-12-09T00:24:03.215Z,36.22
2022-12-09T00:25:07.264Z,47.35
2022-12-09T00:26:09.843Z,39.25
2022-12-09T00:27:13.466Z,34.10
2022-12-09T00:28:17.264Z,27.83
2022-12-09T00:29:20.525Z,24.67
2022-12-09T00:30:22.969Z,37.22
2022-12-09T00:31:30.158Z,27.45
2022-12-09T00:32:33.907Z,25.45
2022-12-09T00:33:36.224Z,24.02
2022-12-09T00:34:39.408Z,29.90
2022-12-09T00:35:56.934Z,21.92
2022-12-09T00:37:00.200Z,23.95
2022-12-09T00:38:02.476Z,23.83
2022-12-09T00:39:06.000Z,32.90
2022-12-09T00:40:09.574Z,43.67
2022-12-09T00:41:14.745Z,62.58
2022-12-09T00:42:16.977Z,45.95
2022-12-09T00:43:21.757Z,37.13
2022-12-09T00:44:24.145Z,57.17
2022-12-09T00:45:27.331Z,46.35
2022-12-09T00:46:29.610Z,45.25
2022-12-09T00:47:33.087Z,66.63
2022-12-09T00:48:36.211Z,72.97
2022-12-09T00:49:39.479Z,74.10
2022-12-09T00:50:41.827Z,38.92
2022-12-09T00:51:45.191Z,37.75
2022-12-09T00:52:47.495Z,26.13
2022-12-09T00:53:54.358Z,47.00
2022-12-09T00:54:57.338Z,46.42
2022-12-09T00:56:01.257Z,113.35
2022-12-09T00:57:04.011Z,64.45
2022-12-09T00:58:07.390Z,62.88
2022-12-09T00:59:11.248Z,56.70
2022-12-09T01:00:14.812Z,44.05
2022-12-09T01:01:17.121Z,31.58
2022-12-09T01:02:20.655Z,72.05
2022-12-09T01:03:23.381Z,95.30
2022-12-09T01:04:27.107Z,35.30
2022-12-09T01:05:29.407Z,51.92
2022-12-09T01:06:32.691Z,38.55
2022-12-09T01:07:37.540Z,32.83
2022-12-09T01:08:42.898Z,25.67
2022-12-09T01:09:45.334Z,25.50
2022-12-09T01:10:49.107Z,28.15
2022-12-09T01:11:52.626Z,28.08
2022-12-09T01:12:54.785Z,26.92
2022-12-09T01:14:01.117Z,28.27
2022-12-09T01:15:06.531Z,26.65
2022-12-09T01:16:15.756Z,29.02
2022-12-09T01:17:18.116Z,30.85
2022-12-09T01:18:21.669Z,31.35
2022-12-09T01:19:23.977Z,31.20
2022-12-09T01:20:27.953Z,32.88
2022-12-09T01:21:30.768Z,39.97
2022-12-09T01:22:34.295Z,31.17
2022-12-09T01:23:36.573Z,33.42
2022-12-09T01:24:39.981Z,35.38
2022-12-09T01:25:42.237Z,38.47
2022-12-09T01:26:46.288Z,39.03
2022-12-09T01:27:48.782Z,31.77
2022-12-09T01:28:52.961Z,38.58
2022-12-09T01:29:55.627Z,37.25
2022-12-09T01:31:07.286Z,33.10
2022-12-09T01:32:10.582Z,44.97
2022-12-09T01:33:14.668Z,41.65
2022-12-09T01:34:18.148Z,31.30
2022-12-09T01:35:20.635Z,30.00
2022-12-09T01:36:25.630Z,56.00
2022-12-09T01:37:27.817Z,34.97
2022-12-09T01:38:31.595Z,52.92
2022-12-09T01:39:34.995Z,32.75
2022-12-09T01:40:38.279Z,61.78
2022-12-09T01:41:42.254Z,33.85
2022-12-09T01:42:45.566Z,39.08
2022-12-09T01:44:14.417Z,38.78
2022-12-09T01:45:40.779Z,46.20
2022-12-09T01:46:46.144Z,48.92
2022-12-09T01:47:53.411Z,39.70
2022-12-09T01:48:56.845Z,36.30
2022-12-09T01:50:00.209Z,46.55
2022-12-09T01:51:08.828Z,39.97
2022-12-09T01:52:15.859Z,55.47
2022-12-09T01:53:21.086Z,54.10
2022-12-09T01:54:23.613Z,61.33
2022-12-09T01:55:27.247Z,60.83
2022-12-09T01:56:33.390Z,42.05
2022-12-09T01:57:37.304Z,53.65
2022-12-09T01:58:41.086Z,39.13
2022-12-09T01:59:44.746Z,53.38
2022-12-09T02:00:48.792Z,67.18
2022-12-09T02:01:57.377Z,54.70
2022-12-09T02:03:02.585Z,45.67
2022-12-09T02:04:07.102Z,75.93
2022-12-09T02:05:10.730Z,75.07
2022-12-09T02:06:16.997Z,47.55
2022-12-09T02:07:20.535Z,46.90
2022-12-09T02:08:24.302Z,44.95
2022-12-09T02:09:27.633Z,38.70
2022-12-09T02:10:34.504Z,53.70
2022-12-09T02:11:56.853Z,31.02
2022-12-09T02:13:11.812Z,37.05
2022-12-09T02:14:19.476Z,53.10
2022-12-09T02:15:33.256Z,38.55
2022-12-09T02:16:41.495Z,30.65
2022-12-09T02:17:53.657Z,35.80
2022-12-09T02:19:05.768Z,51.03
2022-12-09T02:20:16.931Z,40.53
2022-12-09T02:21:26.068Z,48.35
2022-12-09T02:22:34.640Z,54.85
2022-12-09T02:23:41.991Z,51.63
2022-12-09T02:24:56.443Z,37.50
2022-12-09T02:26:10.238Z,37.28
2022-12-09T02:27:19.526Z,46.78
2022-12-09T02:28:41.025Z,41.65
2022-12-09T02:30:07.138Z,45.90
2022-12-09T02:31:24.864Z,40.25
2022-12-09T02:32:59.363Z,41.03
2022-12-09T02:34:11.631Z,41.75
2022-12-09T02:35:20.732Z,37.25
2022-12-09T02:36:28.391Z,36.75
2022-12-09T02:37:37.062Z,41.60
2022-12-09T02:38:42.498Z,39.22
2022-12-09T02:39:53.940Z,39.88
2022-12-09T02:41:02.694Z,37.65
2022-12-09T02:42:09.923Z,37.65
2022-12-09T02:43:16.143Z,45.17
2022-12-09T02:44:22.574Z,43.58
2022-12-09T02:45:28.581Z,42.38
2022-12-09T02:46:34.243Z,40.65
2022-12-09T02:47:43.977Z,38.03
2022-12-09T02:48:54.532Z,41.88
2022-12-09T02:50:02.123Z,41.13
2022-12-09T02:51:10.903Z,42.47
2022-12-09T02:52:15.701Z,44.58
2022-12-09T02:53:20.250Z,43.35
2022-12-09T02:54:25.122Z,48.17
2022-12-09T02:55:31.062Z,46.03
2022-12-09T02:56:35.000Z,49.78
2022-12-09T02:57:40.645Z,46.53
2022-12-09T02:58:44.603Z,47.80
2022-12-09T03:00:59.020Z,46.92
2022-12-09T03:02:19.847Z,47.95
2022-12-09T03:04:28.801Z,47.72
2022-12-09T03:05:42.271Z,40.50
2022-12-09T03:06:50.991Z,44.92
2022-12-09T03:08:03.410Z,42.30
2022-12-09T03:09:09.820Z,39.90
2022-12-09T03:10:18.257Z,44.17
2022-12-09T03:11:24.136Z,43.72
2022-12-09T03:12:30.725Z,39.10
2022-12-09T03:13:43.866Z,47.15
2022-12-09T03:14:51.389Z,42.10
2022-12-09T03:16:00.202Z,41.80
2022-12-09T03:17:14.009Z,39.95
2022-12-09T03:18:19.275Z,47.13
2022-12-09T03:19:27.255Z,47.78
2022-12-09T03:20:34.554Z,47.05
2022-12-09T03:21:42.109Z,50.40
2022-12-09T03:22:46.535Z,46.58
2022-12-09T03:23:52.128Z,41.97
2022-12-09T03:25:02.825Z,42.65
2022-12-09T03:26:06.892Z,43.72
2022-12-09T03:27:15.716Z,46.80
2022-12-09T03:28:24.993Z,44.28
2022-12-09T03:29:30.387Z,43.67
2022-12-09T03:30:37.436Z,47.85
2022-12-09T03:31:41.237Z,45.88
2022-12-09T03:32:45.142Z,44.63
2022-12-09T03:33:53.762Z,46.78
2022-12-09T03:35:02.754Z,42.25
2022-12-09T03:36:11.987Z,43.65
2022-12-09T03:37:18.960Z,50.60
2022-12-09T03:38:24.807Z,42.20
2022-12-09T03:39:32.281Z,42.85
2022-12-09T03:40:37.218Z,45.78
2022-12-09T03:41:45.268Z,44.85
2022-12-09T03:42:53.972Z,51.92
2022-12-09T03:43:59.375Z,47.92
2022-12-09T03:45:06.959Z,45.22
2022-12-09T03:46:09.594Z,53.83
2022-12-09T03:47:13.060Z,49.58
2022-12-09T03:48:16.041Z,47.10
2022-12-09T03:49:19.584Z,41.92
2022-12-09T03:50:23.979Z,46.25
2022-12-09T03:51:32.824Z,44.83
2022-12-09T03:52:40.806Z,49.00
2022-12-09T03:53:48.170Z,46.50
2022-12-09T03:54:54.252Z,41.20
2022-12-09T03:56:03.948Z,42.67
2022-12-09T03:57:13.653Z,43.20
2022-12-09T03:58:20.491Z,47.28
2022-12-09T03:59:25.029Z,40.75
2022-12-09T04:00:28.810Z,45.45
2022-12-09T04:01:32.918Z,45.67
2022-12-09T04:02:36.353Z,40.45
2022-12-09T04:03:39.688Z,44.15
2022-12-09T04:04:43.766Z,42.70
2022-12-09T04:05:47.354Z,46.45
2022-12-09T04:06:54.453Z,42.53
2022-12-09T04:07:57.054Z,47.45
2022-12-09T04:09:02.577Z,45.22
2022-12-09T04:10:07.181Z,45.95
2022-12-09T04:11:10.632Z,42.78
2022-12-09T04:12:12.762Z,44.20
2022-12-09T04:13:16.155Z,48.58
2022-12-09T04:14:18.501Z,45.00
2022-12-09T04:15:22.133Z,45.97
2022-12-09T04:16:24.513Z,43.13
2022-12-09T04:17:28.143Z,50.85
2022-12-09T04:18:30.638Z,46.17
2022-12-09T04:19:34.059Z,44.95
2022-12-09T04:20:36.373Z,46.80
2022-12-09T04:21:39.862Z,45.35
2022-12-09T04:22:43.423Z,47.00
2022-12-09T04:23:46.872Z,47.15
2022-12-09T04:24:49.222Z,46.00
2022-12-09T04:25:52.530Z,42.28
2022-12-09T04:26:55.020Z,48.53
2022-12-09T04:27:58.479Z,49.00
2022-12-09T04:29:01.298Z,44.05
2022-12-09T04:30:05.998Z,46.20
2022-12-09T04:31:11.258Z,50.95
2022-12-09T04:32:15.365Z,44.63
2022-12-09T04:33:17.614Z,44.28
2022-12-09T04:34:20.803Z,50.20
2022-12-09T04:35:23.149Z,50.17
2022-12-09T04:36:26.362Z,44.80
2022-12-09T04:37:28.815Z,46.95
2022-12-09T04:38:33.483Z,48.15
2022-12-09T04:39:36.089Z,54.45
2022-12-09T04:40:39.689Z,48.38
2022-12-09T04:41:41.993Z,46.65
2022-12-09T04:42:45.442Z,48.05
2022-12-09T04:43:49.011Z,50.78
2022-12-09T04:44:52.565Z,51.58
2022-12-09T04:45:55.134Z,54.95
2022-12-09T04:46:58.594Z,53.92
2022-12-09T04:48:01.563Z,51.83
2022-12-09T04:49:05.423Z,49.50
2022-12-09T04:50:08.575Z,48.92
2022-12-09T04:51:14.373Z,50.90
2022-12-09T04:52:17.299Z,51.13
2022-12-09T04:53:20.519Z,52.47
2022-12-09T04:54:24.224Z,52.75
2022-12-09T04:55:27.491Z,51.08
2022-12-09T04:56:30.101Z,47.95
2022-12-09T04:57:33.373Z,52.40
2022-12-09T04:58:36.098Z,50.45
2022-12-09T04:59:39.510Z,49.90
2022-12-09T05:00:42.018Z,52.80
2022-12-09T05:01:45.760Z,48.15
2022-12-09T05:02:48.292Z,51.88
2022-12-09T05:03:54.010Z,52.03
2022-12-09T05:04:56.833Z,53.60
2022-12-09T05:06:00.547Z,51.97
2022-12-09T05:07:03.200Z,50.05
2022-12-09T05:08:08.185Z,48.35
2022-12-09T05:09:13.697Z,51.08
2022-12-09T05:10:18.181Z,53.15
2022-12-09T05:11:23.962Z,53.80
2022-12-09T05:12:26.551Z,50.33
2022-12-09T05:13:29.923Z,53.38
2022-12-09T05:14:32.379Z,49.08
2022-12-09T05:15:35.963Z,51.03
2022-12-09T05:16:38.772Z,50.83
2022-12-09T05:17:42.937Z,51.42
2022-12-09T05:18:46.465Z,50.63
2022-12-09T05:19:49.822Z,50.63
2022-12-09T05:20:52.396Z,57.60
2022-12-09T05:21:55.790Z,52.70
2022-12-09T05:22:58.387Z,48.80
2022-12-09T05:24:03.245Z,56.97
2022-12-09T05:25:06.791Z,50.40
2022-12-09T05:26:17.213Z,49.33
2022-12-09T05:27:19.714Z,54.90
2022-12-09T05:28:23.200Z,49.38
2022-12-09T05:29:26.495Z,48.20
2022-12-09T05:30:30.052Z,51.92
2022-12-09T05:31:32.553Z,50.45
2022-12-09T05:32:36.273Z,51.00
2022-12-09T05:33:38.916Z,52.13
2022-12-09T05:34:42.832Z,51.47
2022-12-09T05:35:52.764Z,49.15
2022-12-09T05:36:57.227Z,48.03
2022-12-09T05:38:00.014Z,50.70
2022-12-09T05:39:03.339Z,44.40
2022-12-09T05:40:12.561Z,46.95
2022-12-09T05:41:17.944Z,47.45
2022-12-09T05:42:20.559Z,46.45
2022-12-09T05:43:24.369Z,52.40
2022-12-09T05:44:26.828Z,48.95
2022-12-09T05:45:30.143Z,48.85
2022-12-09T05:46:32.982Z,46.83
2022-12-09T05:47:37.527Z,43.47
2022-12-09T05:48:40.585Z,44.08
2022-12-09T05:49:44.670Z,43.72
2022-12-09T05:50:57.763Z,49.22
2022-12-09T05:52:00.951Z,42.47
2022-12-09T05:53:04.026Z,44.22
2022-12-09T05:54:08.242Z,41.17
2022-12-09T05:55:11.181Z,40.28
2022-12-09T05:56:18.797Z,40.70
2022-12-09T05:57:21.991Z,42.40
2022-12-09T05:58:25.952Z,44.63
2022-12-09T05:59:30.624Z,45.63
2022-12-09T06:00:33.545Z,41.47
2022-12-09T06:01:37.083Z,39.63
2022-12-09T06:02:39.406Z,43.58
2022-12-09T06:03:43.718Z,42.15
2022-12-09T06:04:46.444Z,43.38
2022-12-09T06:05:50.453Z,43.15
2022-12-09T06:06:54.345Z,42.78
2022-12-09T06:07:58.999Z,39.78
2022-12-09T06:09:08.670Z,41.05
2022-12-09T06:10:12.015Z,42.78
2022-12-09T06:11:21.185Z,41.33
2022-12-09T06:12:23.926Z,40.60
2022-12-09T06:13:27.999Z,42.17
2022-12-09T06:14:31.936Z,38.08
2022-12-09T06:15:36.813Z,36.60
2022-12-09T06:16:40.702Z,36.67
2022-12-09T06:17:43.302Z,39.78
2022-12-09T06:18:47.777Z,43.53
2022-12-09T06:19:52.275Z,38.90
2022-12-09T06:20:54.707Z,40.30
2022-12-09T06:21:58.396Z,40.17
2022-12-09T06:23:00.849Z,38.83
2022-12-09T06:24:06.285Z,39.80
2022-12-09T06:25:09.306Z,43.67
2022-12-09T06:26:20.911Z,39.53
2022-12-09T06:27:23.399Z,39.17
2022-12-09T06:28:36.617Z,39.55
2022-12-09T06:29:43.070Z,46.05
2022-12-09T06:30:45.351Z,38.38
2022-12-09T06:31:48.876Z,39.67
2022-12-09T06:32:51.362Z,39.88
2022-12-09T06:33:57.318Z,44.55
2022-12-09T06:35:01.301Z,39.20
2022-12-09T06:36:05.379Z,39.10
2022-12-09T06:37:08.796Z,42.90
2022-12-09T06:38:11.368Z,39.33
2022-12-09T06:39:15.336Z,37.10
2022-12-09T06:40:18.087Z,43.55
2022-12-09T06:41:23.251Z,38.17
2022-12-09T06:42:25.903Z,38.50
2022-12-09T06:43:29.480Z,39.30
2022-12-09T06:44:33.162Z,37.55
2022-12-09T06:45:36.563Z,35.85
2022-12-09T06:46:40.663Z,34.97
2022-12-09T06:47:43.601Z,36.75
2022-12-09T06:48:47.382Z,40.70
2022-12-09T06:49:50.365Z,37.83
2022-12-09T06:50:54.446Z,36.08
2022-12-09T06:51:57.746Z,40.08
2022-12-09T06:53:00.251Z,38.83
2022-12-09T06:54:03.831Z,37.65
2022-12-09T06:55:08.656Z,39.20
2022-12-09T06:56:13.797Z,37.03
2022-12-09T06:57:17.933Z,39.30
2022-12-09T06:58:21.552Z,32.90
2022-12-09T06:59:25.435Z,38.92
2022-12-09T07:00:28.375Z,38.25
2022-12-09T07:01:32.184Z,33.10
2022-12-09T07:02:36.694Z,40.25
2022-12-09T07:03:41.142Z,32.10
2022-12-09T07:04:45.321Z,36.40
2022-12-09T07:05:48.018Z,38.00
2022-12-09T07:06:51.850Z,33.85
2022-12-09T07:07:55.613Z,33.60
2022-12-09T07:09:00.918Z,29.88
2022-12-09T07:10:04.918Z,36.10
2022-12-09T07:11:07.440Z,35.78
2022-12-09T07:12:11.066Z,31.38
2022-12-09T07:13:16.081Z,29.55
2022-12-09T07:14:19.546Z,38.17
2022-12-09T07:15:23.019Z,34.75
2022-12-09T07:16:26.823Z,37.65
2022-12-09T07:17:30.563Z,33.47
2022-12-09T07:18:34.411Z,31.48
2022-12-09T07:19:38.047Z,31.05
2022-12-09T07:20:40.901Z,32.53
2022-12-09T07:21:44.350Z,29.13
2022-12-09T07:22:46.665Z,32.75
2022-12-09T07:23:50.660Z,32.80
2022-12-09T07:24:54.799Z,34.45
2022-12-09T07:25:57.878Z,34.90
2022-12-09T07:27:06.357Z,32.35
2022-12-09T07:28:12.603Z,34.20
2022-12-09T07:29:17.946Z,32.05
2022-12-09T07:30:22.030Z,29.38
2022-12-09T07:31:26.552Z,28.73
2022-12-09T07:32:30.560Z,26.23
2022-12-09T07:33:34.366Z,29.95
2022-12-09T07:34:37.207Z,25.30
2022-12-09T07:35:40.898Z,28.48
2022-12-09T07:36:44.216Z,33.03
2022-12-09T07:37:47.556Z,28.88
2022-12-09T07:38:54.470Z,31.80
2022-12-09T07:39:57.780Z,27.80
2022-12-09T07:41:05.580Z,27.98
2022-12-09T07:42:08.984Z,29.90
2022-12-09T07:43:22.512Z,33.35
2022-12-09T07:44:28.389Z,33.90
2022-12-09T07:45:34.988Z,28.45
2022-12-09T07:46:37.987Z,28.27
2022-12-09T07:47:41.671Z,31.30
2022-12-09T07:48:44.972Z,28.13
2022-12-09T07:49:48.481Z,30.00
2022-12-09T07:50:52.044Z,28.10
2022-12-09T07:51:55.519Z,30.70
2022-12-09T07:53:00.281Z,29.05
2022-12-09T07:54:03.432Z,32.72
2022-12-09T07:55:08.347Z,30.27
2022-12-09T07:56:14.806Z,35.08
2022-12-09T07:57:18.399Z,29.08
2022-12-09T07:58:22.137Z,30.38
2022-12-09T07:59:25.465Z,29.25
2022-12-09T08:00:29.550Z,31.45
2022-12-09T08:01:33.120Z,29.85
2022-12-09T08:02:35.475Z,28.77
2022-12-09T08:03:40.280Z,29.35
2022-12-09T08:04:44.136Z,30.60
2022-12-09T08:05:47.915Z,29.52
2022-12-09T08:06:51.771Z,28.63
2022-12-09T08:07:55.676Z,29.85
2022-12-09T08:09:00.591Z,32.97
2022-12-09T08:10:04.488Z,31.88
2022-12-09T08:11:08.627Z,27.08
2022-12-09T08:12:12.855Z,27.70
2022-12-09T08:13:15.464Z,36.58
2022-12-09T08:14:18.830Z,27.95
2022-12-09T08:15:21.041Z,31.80
2022-12-09T08:16:26.634Z,31.45
2022-12-09T08:17:30.928Z,30.83
2022-12-09T08:18:35.247Z,32.30
2022-12-09T08:19:38.962Z,29.20
2022-12-09T08:20:42.126Z,34.92
2022-12-09T08:21:49.590Z,35.97
2022-12-09T08:24:00.623Z,33.50
2022-12-09T08:25:04.665Z,37.67
2022-12-09T08:26:07.592Z,37.45
2022-12-09T08:27:11.228Z,35.65
2022-12-09T08:28:13.840Z,35.70
2022-12-09T08:29:17.533Z,39.80
2022-12-09T08:30:20.382Z,34.83
2022-12-09T08:31:27.450Z,35.55
2022-12-09T08:32:31.983Z,36.22
2022-12-09T08:33:35.485Z,37.90
2022-12-09T08:34:38.934Z,33.10
2022-12-09T08:35:42.436Z,34.55
2022-12-09T08:36:46.492Z,34.28
2022-12-09T08:37:49.108Z,34.45
2022-12-09T08:38:53.065Z,35.15
2022-12-09T08:39:56.548Z,33.88
2022-12-09T08:41:00.069Z,41.25
2022-12-09T08:42:13.452Z,36.90
2022-12-09T08:43:16.025Z,34.97
2022-12-09T08:44:22.209Z,36.75
2022-12-09T08:45:26.216Z,34.60
2022-12-09T08:46:31.473Z,39.95
2022-12-09T08:47:35.390Z,47.95
2022-12-09T08:48:39.113Z,45.42
2022-12-09T08:49:42.822Z,43.28
2022-12-09T08:50:46.761Z,41.42
2022-12-09T08:51:51.807Z,40.05
2022-12-09T08:52:54.151Z,38.90
2022-12-09T08:53:58.166Z,42.30
2022-12-09T08:55:12.747Z,43.55
2022-12-09T08:56:19.657Z,43.53
2022-12-09T08:57:24.984Z,40.50
2022-12-09T08:58:27.429Z,45.42
2022-12-09T08:59:30.968Z,43.83
2022-12-09T09:00:33.710Z,48.10
2022-12-09T09:01:39.008Z,44.35
2022-12-09T09:02:41.977Z,46.70
2022-12-09T09:03:51.051Z,51.22
2022-12-09T09:04:54.750Z,42.58
2022-12-09T09:06:08.699Z,41.80
2022-12-09T09:07:14.210Z,43.80
2022-12-09T09:08:19.094Z,42.00
2022-12-09T09:09:24.484Z,43.03
2022-12-09T09:10:29.511Z,45.30
2022-12-09T09:11:33.561Z,42.67
2022-12-09T09:12:43.293Z,42.58
2022-12-09T09:13:54.655Z,46.92
2022-12-09T09:15:01.981Z,46.55
2022-12-09T09:16:05.720Z,42.90
2022-12-09T09:17:12.766Z,44.65
2022-12-09T09:18:19.060Z,43.83
2022-12-09T09:19:27.632Z,43.22
2022-12-09T09:20:32.841Z,46.22
2022-12-09T09:21:41.086Z,46.63
2022-12-09T09:23:02.894Z,39.70
2022-12-09T09:24:12.122Z,46.53
2022-12-09T09:25:15.852Z,45.35
2022-12-09T09:26:20.767Z,48.28
2022-12-09T09:27:24.384Z,49.38
2022-12-09T09:28:30.879Z,41.78
2022-12-09T09:29:35.648Z,47.30
2022-12-09T09:30:39.889Z,44.03
2022-12-09T09:31:43.975Z,51.95
2022-12-09T09:32:48.041Z,49.50
2022-12-09T09:33:52.855Z,52.88
2022-12-09T09:34:56.847Z,51.30
2022-12-09T09:36:08.353Z,54.20
2022-12-09T09:37:13.484Z,59.38
2022-12-09T09:38:20.015Z,55.35
2022-12-09T09:39:25.869Z,50.80
2022-12-09T09:40:31.133Z,56.22
2022-12-09T09:41:45.471Z,58.38
2022-12-09T09:42:52.317Z,54.15
2022-12-09T09:43:56.824Z,49.35
2022-12-09T09:45:03.894Z,50.50
2022-12-09T09:46:08.715Z,51.78
2022-12-09T09:47:16.764Z,52.35
2022-12-09T09:48:25.300Z,48.25
2022-12-09T09:49:39.100Z,54.28
2022-12-09T09:50:50.435Z,48.72
2022-12-09T09:51:53.427Z,50.97
2022-12-09T09:52:57.643Z,46.67
2022-12-09T09:54:06.691Z,55.10
2022-12-09T09:55:16.829Z,48.85
2022-12-09T09:56:27.841Z,50.97
2022-12-09T09:57:49.185Z,46.25
2022-12-09T10:00:09.711Z,50.47
2022-12-09T10:01:20.031Z,46.17
2022-12-09T10:02:36.494Z,51.47
2022-12-09T10:03:58.611Z,41.42
2022-12-09T10:05:12.101Z,43.80
2022-12-09T10:06:28.252Z,48.20
2022-12-09T10:07:39.954Z,49.85
2022-12-09T10:08:56.251Z,44.03
2022-12-09T10:10:14.090Z,46.33
2022-12-09T10:11:24.661Z,43.95
2022-12-09T10:12:38.373Z,40.38
2022-12-09T10:13:49.400Z,38.22
2022-12-09T10:14:59.115Z,39.88
2022-12-09T10:16:10.853Z,36.38
2022-12-09T10:17:25.229Z,36.92
2022-12-09T10:18:33.665Z,40.88
2022-12-09T10:19:42.681Z,39.75
2022-12-09T10:20:46.914Z,38.63
2022-12-09T10:21:54.688Z,32.67
2022-12-09T10:23:02.036Z,33.50
2022-12-09T10:24:19.030Z,37.60
2022-12-09T10:25:25.854Z,32.03
2022-12-09T10:26:32.151Z,38.35
2022-12-09T10:27:39.785Z,36.00
2022-12-09T10:28:47.709Z,34.05
2022-12-09T10:29:56.763Z,31.60
2022-12-09T10:31:00.831Z,32.33
2022-12-09T10:32:03.843Z,34.13
2022-12-09T10:33:08.825Z,31.10
2022-12-09T10:34:14.358Z,31.50
2022-12-09T10:35:22.638Z,31.60
2022-12-09T10:36:35.228Z,31.45
2022-12-09T10:37:39.602Z,34.20
2022-12-09T10:38:43.922Z,32.53
2022-12-09T10:39:47.213Z,28.02
2022-12-09T10:41:08.016Z,30.33
2022-12-09T10:42:35.074Z,30.10
2022-12-09T10:43:42.401Z,33.25
2022-12-09T10:44:49.157Z,28.40
2022-12-09T10:47:28.364Z,29.45
2022-12-09T10:48:37.627Z,27.75
2022-12-09T10:49:43.999Z,28.70
2022-12-09T10:50:48.633Z,26.25
2022-12-09T10:51:55.454Z,30.98
2022-12-09T10:53:04.178Z,29.25
2022-12-09T10:54:21.740Z,28.98
2022-12-09T10:55:32.125Z,30.55
2022-12-09T10:56:37.850Z,25.77
2022-12-09T10:57:41.438Z,28.17
2022-12-09T10:58:44.712Z,27.08
2022-12-09T10:59:59.313Z,28.25
2022-12-09T11:01:09.590Z,24.83
2022-12-09T11:02:22.871Z,25.15
2022-12-09T11:03:29.729Z,27.60
2022-12-09T11:04:35.090Z,26.10
2022-12-09T11:05:38.396Z,27.75
2022-12-09T11:06:43.447Z,25.73
2022-12-09T11:07:49.338Z,27.23
2022-12-09T11:08:55.746Z,24.52
2022-12-09T11:10:09.259Z,25.80
2022-12-09T11:11:13.120Z,25.10
2022-12-09T11:12:21.188Z,27.30
2022-12-09T11:13:40.510Z,24.33
2022-12-09T11:14:52.497Z,30.08
2022-12-09T11:15:59.458Z,29.85
2022-12-09T11:17:16.937Z,25.60
2022-12-09T11:18:33.075Z,26.52
2022-12-09T11:19:40.726Z,20.27
2022-12-09T11:20:55.207Z,28.77
2022-12-09T11:22:16.079Z,23.83
2022-12-09T11:23:22.509Z,28.08
2022-12-09T11:24:27.735Z,24.58
2022-12-09T11:25:33.163Z,22.42
2022-12-09T11:26:39.516Z,21.77
2022-12-09T11:27:48.109Z,24.17
2022-12-09T11:29:01.813Z,22.63
2022-12-09T11:30:12.732Z,24.17
2022-12-09T11:31:29.990Z,23.88
2022-12-09T11:32:33.215Z,22.25
2022-12-09T11:33:38.688Z,24.63
2022-12-09T11:34:47.792Z,26.73
2022-12-09T11:35:54.867Z,26.92
2022-12-09T11:37:02.591Z,26.48
2022-12-09T11:38:17.147Z,26.30
2022-12-09T11:39:25.221Z,21.70
2022-12-09T11:40:28.873Z,22.20
2022-12-09T11:41:48.811Z,20.70
2022-12-09T11:42:54.270Z,21.60
2022-12-09T11:43:58.232Z,24.80
2022-12-09T11:45:05.484Z,25.33
2022-12-09T11:46:22.384Z,23.83
2022-12-09T11:47:50.339Z,26.25
2022-12-09T11:48:59.112Z,22.92
2022-12-09T11:50:18.571Z,23.13
2022-12-09T11:51:23.894Z,21.30
2022-12-09T11:52:29.717Z,23.70
2022-12-09T11:53:41.148Z,24.10
2022-12-09T11:54:49.710Z,24.20
2022-12-09T11:55:56.849Z,23.88
2022-12-09T11:57:01.439Z,23.70
2022-12-09T11:58:11.895Z,21.27
2022-12-09T11:59:17.941Z,22.70
2022-12-09T12:00:24.574Z,22.30
2022-12-09T12:01:32.829Z,23.05
2022-12-09T12:02:42.077Z,23.00
2022-12-09T12:03:49.877Z,22.75
2022-12-09T12:04:58.383Z,22.33
2022-12-09T12:06:05.343Z,22.30
2022-12-09T12:07:14.143Z,21.38
2022-12-09T12:08:24.344Z,20.45
2022-12-09T12:09:36.849Z,22.42
2022-12-09T12:10:42.897Z,18.73
2022-12-09T12:11:55.301Z,22.50
2022-12-09T12:13:05.322Z,20.40
2022-12-09T12:14:17.266Z,20.02
2022-12-09T12:15:24.914Z,24.70
2022-12-09T12:16:39.285Z,24.80
2022-12-09T12:17:43.871Z,19.70
2022-12-09T12:18:51.271Z,20.55
2022-12-09T12:19:56.385Z,25.10
2022-12-09T12:21:21.197Z,20.80
2022-12-09T12:22:39.688Z,20.17
2022-12-09T12:24:01.908Z,21.88
2022-12-09T12:25:18.477Z,22.08
2022-12-09T12:26:26.245Z,20.10
2022-12-09T12:27:42.668Z,22.05
2022-12-09T12:29:08.249Z,19.25
2022-12-09T12:30:13.313Z,20.02
2022-12-09T12:31:32.457Z,18.77
2022-12-09T12:32:52.255Z,23.58
2022-12-09T12:34:25.926Z,22.27
2022-12-09T12:35:45.961Z,20.58
2022-12-09T12:36:56.997Z,23.10
2022-12-09T12:38:13.371Z,26.73
2022-12-09T12:39:28.105Z,22.45
2022-12-09T12:40:41.020Z,21.10
2022-12-09T12:41:59.657Z,19.17
2022-12-09T12:43:29.852Z,21.65
2022-12-09T12:45:04.710Z,20.35
2022-12-09T12:46:29.640Z,19.13
2022-12-09T12:47:44.341Z,22.17
2022-12-09T12:49:01.633Z,21.60
2022-12-09T12:50:44.709Z,17.90
2022-12-09T12:51:58.492Z,21.05
2022-12-09T12:53:08.491Z,21.05
2022-12-09T12:54:27.497Z,22.05
2022-12-09T12:55:49.130Z,19.83
2022-12-09T12:56:58.815Z,23.83
2022-12-09T12:58:11.087Z,22.25
2022-12-09T12:59:23.982Z,21.83
2022-12-09T13:00:34.431Z,20.70
2022-12-09T13:01:47.622Z,25.08
2022-12-09T13:03:03.126Z,22.02
2022-12-09T13:04:18.555Z,25.35
2022-12-09T13:05:23.956Z,21.77
2022-12-09T13:06:43.090Z,24.98
2022-12-09T13:07:52.526Z,22.77
2022-12-09T13:09:03.078Z,27.73
2022-12-09T13:11:21.674Z,23.70
2022-12-09T13:12:42.329Z,19.45
2022-12-09T13:13:51.143Z,22.63
2022-12-09T13:14:56.364Z,22.73
2022-12-09T13:16:02.840Z,22.85
2022-12-09T13:17:09.684Z,21.92
2022-12-09T13:18:15.968Z,23.77
2022-12-09T13:19:24.680Z,22.67
2022-12-09T13:20:32.329Z,21.67
2022-12-09T13:21:36.286Z,20.73
2022-12-09T13:22:48.150Z,21.90
2022-12-09T13:24:01.600Z,21.30
2022-12-09T13:25:15.919Z,20.23
2022-12-09T13:26:31.821Z,21.92
2022-12-09T13:27:40.757Z,20.00
2022-12-09T13:28:48.327Z,20.92
2022-12-09T13:29:58.760Z,20.83
2022-12-09T13:31:02.706Z,22.27
2022-12-09T13:32:18.100Z,20.85
2022-12-09T13:33:37.487Z,21.58
2022-12-09T13:34:43.265Z,18.27
2022-12-09T13:35:55.569Z,22.48
2022-12-09T13:36:57.798Z,21.20
2022-12-09T13:38:01.634Z,17.90
2022-12-09T13:39:05.248Z,21.05
2022-12-09T13:40:30.718Z,23.10
2022-12-09T13:42:00.033Z,22.27
2022-12-09T13:43:13.419Z,21.42
2022-12-09T13:44:18.996Z,24.02
2022-12-09T13:45:27.888Z,20.08
2022-12-09T13:46:31.136Z,24.33
2022-12-09T13:47:36.999Z,23.23
2022-12-09T13:48:50.052Z,24.05
2022-12-09T13:49:57.055Z,22.33
2022-12-09T13:51:01.159Z,24.08
2022-12-09T13:52:04.659Z,23.65
2022-12-09T13:53:23.504Z,23.98
2022-12-09T13:54:29.170Z,27.02
2022-12-09T13:55:39.890Z,21.50
2022-12-09T13:57:56.914Z,25.13
2022-12-09T13:59:44.321Z,24.23
2022-12-09T14:01:04.640Z,24.52
2022-12-09T14:02:22.155Z,23.17
2022-12-09T14:03:29.919Z,25.33
2022-12-09T14:04:37.812Z,23.10
2022-12-09T14:05:40.408Z,23.85
2022-12-09T14:06:55.766Z,26.08
2022-12-09T14:08:04.640Z,27.90
2022-12-09T14:09:29.561Z,26.67
2022-12-09T14:10:44.297Z,26.25
2022-12-09T14:11:49.819Z,26.75
2022-12-09T14:13:22.622Z,24.17
2022-12-09T14:14:50.569Z,28.52
2022-12-09T14:16:15.621Z,27.50
2022-12-09T14:18:02.467Z,27.77
2022-12-09T14:19:41.241Z,24.90
2022-12-09T14:20:44.429Z,29.48
2022-12-09T14:22:25.840Z,27.02
2022-12-09T14:23:29.057Z,26.02
2022-12-09T14:24:36.750Z,27.55
2022-12-09T14:26:05.858Z,25.48
2022-12-09T14:27:14.809Z,29.52
2022-12-09T14:28:51.274Z,24.88
2022-12-09T14:29:57.118Z,28.58
2022-12-09T14:31:06.594Z,23.73
2022-12-09T14:32:24.691Z,25.38
2022-12-09T14:33:32.066Z,22.42
2022-12-09T14:34:40.807Z,26.48